Etusivu
METAR-TAF:

METAR-TAF

Lentoasemat :

Kuwait, Kuwait

Kuwaitin kansainvälinen lentoasema

Leveyspiiri: 29-13N, Pituuspiiri: 047-59E, korkeus merenpinnasta: 55 m

Tämänhetkinen sää

Tämä raportti tehtiin 58 minuuttia sitten, kello 16.00 UTC
Tuuli 16 kn pohjoisesta
Lämpötila 45°C
Kosteus 12%
Ilmanpaine 1000 hPa
Näkyvyys: 7000 m
selkeää

METAR: OKBK 191600Z 35016KT 7000 SKC 45/09 Q1000 NOSIG

Aika: 19:58 (16:58 UTC)

Sääennuste

Tämä raportti tehtiin 6 tuntia ja 13 minuuttia sitten, kello 10.45 UTC
Ennuste voimassa 19. päivästä klo 12 UTC - 20. päivään klo 18 UTC
Tuuli 10 kn pohjoisesta puuskistuen 22 kn:hen
Näkyvyys: 7000 m
selkeää
Ajoittain
19. päivästä klo 12 UTC - 19. päivään klo 18 UTC
Näkyvyys: 3000 m
pölymyrsky

TAF: OKBK 191045Z 1912/2018 35010G22KT 7000 SKC TEMPO 1912/1918 3000 BLDU

Säähavainnot ja -ennusteet yli 4000 lentoasemalta (METAR- ja TAF-raportit).

Käytössä olevat sääasemat on merkitty karttaan keltaisilla ja punaisilla pisteillä.

Aseta hiiri pisteen päälle nähdäksesi sääaseman nimen.

Klikkaa sitten nähdäksesi säähavainnot ja -ennusteet.

Kartan vaihtaminen: klikkaa mustalla rastilla varustettuja vihreitä pisteitä, niin voit zoomata sisään; viivalla varustettua vihreää pistettä, niin voit zoomata ulos tai vihreitä nuolia, niin pääset viereisille kartoille.


METAR-TAF: